createdAt,value
2023-04-15T00:00:34.675Z,14.98
2023-04-15T00:02:39.673Z,16.17
2023-04-15T00:04:50.214Z,11.57
2023-04-15T00:06:56.060Z,13.02
2023-04-15T00:09:01.441Z,17.00
2023-04-15T00:11:06.705Z,12.32
2023-04-15T00:13:12.158Z,18.33
2023-04-15T00:15:19.553Z,16.05
2023-04-15T00:17:24.865Z,12.10
2023-04-15T00:19:30.608Z,11.93
2023-04-15T00:21:38.304Z,15.85
2023-04-15T00:23:47.248Z,13.25
2023-04-15T00:25:55.594Z,16.75
2023-04-15T00:28:01.379Z,13.98
2023-04-15T00:30:07.401Z,12.73
2023-04-15T00:32:12.381Z,16.98
2023-04-15T00:34:18.916Z,14.02
2023-04-15T00:36:26.752Z,13.30
2023-04-15T00:38:35.359Z,16.55
2023-04-15T00:40:41.630Z,17.08
2023-04-15T00:42:46.576Z,14.95
2023-04-15T00:44:52.509Z,14.77
2023-04-15T00:46:57.517Z,23.63
2023-04-15T00:49:03.119Z,15.30
2023-04-15T00:51:08.901Z,14.60
2023-04-15T00:53:11.202Z,15.02
2023-04-15T00:55:20.134Z,17.45
2023-04-15T00:57:26.133Z,16.88
2023-04-15T00:59:32.367Z,16.27
2023-04-15T01:01:38.845Z,19.58
2023-04-15T01:03:43.994Z,18.88
2023-04-15T01:05:49.457Z,19.73
2023-04-15T01:07:54.637Z,16.63
2023-04-15T01:09:59.895Z,20.98
2023-04-15T01:12:08.801Z,16.48
2023-04-15T01:14:14.238Z,18.17
2023-04-15T01:16:19.910Z,19.45
2023-04-15T01:18:25.312Z,13.50
2023-04-15T01:20:30.960Z,16.38
2023-04-15T01:22:38.166Z,19.13
2023-04-15T01:24:43.490Z,16.80
2023-04-15T01:26:53.521Z,18.35
2023-04-15T01:28:58.845Z,17.58
2023-04-15T01:31:10.931Z,16.70
2023-04-15T01:33:16.349Z,18.17
2023-04-15T01:35:24.427Z,17.92
2023-04-15T01:37:29.530Z,14.82
2023-04-15T01:39:35.386Z,20.73
2023-04-15T01:41:42.613Z,19.98
2023-04-15T01:43:50.228Z,18.38
2023-04-15T01:45:56.051Z,18.95
2023-04-15T01:48:01.128Z,20.27
2023-04-15T01:50:07.803Z,17.98
2023-04-15T01:52:12.784Z,22.40
2023-04-15T01:54:20.886Z,14.63
2023-04-15T01:56:26.907Z,20.38
2023-04-15T01:58:31.871Z,16.52
2023-04-15T02:00:39.565Z,14.35
2023-04-15T02:02:45.126Z,17.20
2023-04-15T02:04:50.632Z,18.45
2023-04-15T02:06:55.896Z,19.35
2023-04-15T02:09:01.694Z,21.50
2023-04-15T02:11:07.182Z,19.38
2023-04-15T02:13:12.431Z,17.02
2023-04-15T02:15:20.440Z,19.20
2023-04-15T02:17:28.365Z,17.80
2023-04-15T02:19:33.440Z,17.13
2023-04-15T02:21:40.112Z,18.02
2023-04-15T02:23:45.172Z,18.88
2023-04-15T02:25:53.346Z,17.17
2023-04-15T02:28:00.915Z,18.65
2023-04-15T02:30:06.022Z,17.38
2023-04-15T02:32:11.995Z,19.75
2023-04-15T02:34:19.692Z,17.13
2023-04-15T02:36:24.776Z,17.33
2023-04-15T02:38:32.830Z,16.80
2023-04-15T02:40:40.103Z,16.33
2023-04-15T02:42:45.814Z,19.30
2023-04-15T02:44:54.420Z,18.95
2023-04-15T02:46:59.374Z,15.68
2023-04-15T02:49:04.389Z,18.08
2023-04-15T02:51:23.557Z,17.30
2023-04-15T02:53:31.682Z,18.95
2023-04-15T02:55:36.603Z,19.02
2023-04-15T02:57:41.924Z,15.48
2023-04-15T02:59:47.309Z,21.10
2023-04-15T03:01:52.463Z,19.48
2023-04-15T03:03:57.484Z,16.15
2023-04-15T03:06:02.572Z,16.73
2023-04-15T03:08:10.456Z,18.20
2023-04-15T03:10:15.777Z,18.42
2023-04-15T03:12:20.799Z,18.75
2023-04-15T03:14:26.049Z,20.27
2023-04-15T03:16:30.960Z,18.35
2023-04-15T03:18:35.873Z,22.98
2023-04-15T03:20:43.294Z,24.73
2023-04-15T03:22:48.200Z,20.75
2023-04-15T03:24:55.762Z,22.30
2023-04-15T03:27:02.053Z,19.98
2023-04-15T03:29:07.343Z,19.02
2023-04-15T03:31:12.992Z,18.20
2023-04-15T03:33:19.692Z,21.38
2023-04-15T03:35:24.678Z,16.63
2023-04-15T03:37:29.437Z,18.25
2023-04-15T03:39:34.242Z,22.17
2023-04-15T03:41:42.501Z,17.02
2023-04-15T03:43:49.740Z,16.27
2023-04-15T03:45:54.707Z,19.42
2023-04-15T03:48:15.567Z,20.00
2023-04-15T03:50:24.894Z,20.48
2023-04-15T03:52:30.421Z,18.95
2023-04-15T03:54:35.373Z,21.77
2023-04-15T03:56:43.024Z,19.92
2023-04-15T03:58:50.468Z,21.45
2023-04-15T04:00:55.892Z,21.05
2023-04-15T04:03:01.801Z,20.77
2023-04-15T04:05:07.567Z,20.00
2023-04-15T04:07:19.114Z,19.55
2023-04-15T04:09:24.438Z,20.67
2023-04-15T04:11:29.310Z,18.92
2023-04-15T04:13:36.944Z,20.23
2023-04-15T04:15:42.527Z,25.60
2023-04-15T04:17:48.230Z,20.85
2023-04-15T04:19:54.042Z,22.38
2023-04-15T04:21:59.026Z,17.58
2023-04-15T04:24:03.912Z,19.75
2023-04-15T04:26:09.293Z,21.15
2023-04-15T04:28:14.791Z,18.95
2023-04-15T04:30:23.748Z,22.02
2023-04-15T04:32:30.555Z,22.90
2023-04-15T04:34:35.601Z,21.90
2023-04-15T04:36:40.793Z,21.23
2023-04-15T04:38:45.730Z,24.70
2023-04-15T04:40:50.798Z,21.88
2023-04-15T04:42:55.718Z,19.67
2023-04-15T04:45:00.674Z,19.95
2023-04-15T04:47:08.200Z,23.38
2023-04-15T04:49:13.402Z,21.88
2023-04-15T04:51:19.527Z,19.85
2023-04-15T04:53:24.641Z,21.98
2023-04-15T04:55:29.878Z,24.08
2023-04-15T04:57:36.234Z,24.65
2023-04-15T04:59:41.166Z,26.02
2023-04-15T05:01:49.392Z,24.20
2023-04-15T05:03:57.865Z,23.02
2023-04-15T05:06:03.362Z,26.60
2023-04-15T05:08:08.890Z,22.65
2023-04-15T05:10:16.421Z,24.55
2023-04-15T05:12:23.975Z,20.73
2023-04-15T05:14:29.356Z,25.77
2023-04-15T05:16:34.246Z,21.58
2023-04-15T05:18:39.174Z,21.42
2023-04-15T05:20:49.184Z,19.10
2023-04-15T05:22:54.123Z,18.85
2023-04-15T05:24:59.171Z,23.08
2023-04-15T05:27:04.419Z,24.77
2023-04-15T05:29:09.357Z,23.05
2023-04-15T05:31:14.401Z,19.95
2023-04-15T05:33:19.676Z,26.48
2023-04-15T05:35:24.765Z,23.27
2023-04-15T05:37:32.366Z,27.38
2023-04-15T05:39:40.663Z,23.05
2023-04-15T05:41:45.708Z,23.88
2023-04-15T05:43:52.252Z,22.40
2023-04-15T05:45:57.269Z,25.15
2023-04-15T05:48:02.460Z,23.33
2023-04-15T05:50:08.547Z,24.55
2023-04-15T05:52:13.586Z,23.70
2023-04-15T05:54:28.118Z,22.80
2023-04-15T05:56:33.045Z,24.98
2023-04-15T05:58:38.103Z,24.90
2023-04-15T06:00:43.159Z,23.52
2023-04-15T06:02:50.283Z,25.33
2023-04-15T06:04:55.660Z,25.35
2023-04-15T06:07:00.756Z,28.90
2023-04-15T06:09:05.774Z,19.95
2023-04-15T06:11:13.352Z,23.60
2023-04-15T06:13:20.446Z,26.65
2023-04-15T06:15:25.793Z,23.52
2023-04-15T06:17:31.016Z,27.17
2023-04-15T06:19:36.631Z,24.52
2023-04-15T06:21:42.190Z,24.63
2023-04-15T06:23:51.259Z,24.63
2023-04-15T06:25:56.226Z,19.25
2023-04-15T06:28:03.776Z,24.35
2023-04-15T06:30:13.082Z,28.80
2023-04-15T06:32:21.567Z,27.02
2023-04-15T06:34:26.606Z,31.60
2023-04-15T06:36:32.714Z,21.95
2023-04-15T06:38:39.639Z,29.30
2023-04-15T06:40:44.870Z,20.98
2023-04-15T06:42:49.963Z,23.75
2023-04-15T06:44:58.132Z,23.27
2023-04-15T06:47:03.236Z,22.60
2023-04-15T06:49:08.395Z,21.30
2023-04-15T06:51:13.256Z,24.63
2023-04-15T06:53:21.028Z,20.90
2023-04-15T06:55:26.268Z,25.48
2023-04-15T06:57:33.766Z,24.65
2023-04-15T06:59:40.149Z,22.17
2023-04-15T07:01:48.949Z,23.65
2023-04-15T07:03:54.658Z,23.77
2023-04-15T07:06:00.046Z,26.73
2023-04-15T07:08:05.069Z,24.50
2023-04-15T07:10:12.194Z,21.08
2023-04-15T07:12:19.298Z,21.50
2023-04-15T07:17:22.490Z,19.33
2023-04-15T07:19:27.653Z,24.48
2023-04-15T07:21:32.668Z,20.85
2023-04-15T07:23:37.918Z,25.50
2023-04-15T07:25:42.985Z,22.70
2023-04-15T07:27:48.464Z,23.60
2023-04-15T07:29:53.931Z,21.27
2023-04-15T07:31:59.368Z,23.48
2023-04-15T07:34:07.226Z,21.65
2023-04-15T07:36:12.609Z,19.77
2023-04-15T07:38:20.824Z,17.95
2023-04-15T07:40:26.000Z,20.23
2023-04-15T07:42:31.862Z,20.33
2023-04-15T07:44:37.598Z,20.23
2023-04-15T07:46:42.525Z,19.08
2023-04-15T07:48:47.852Z,20.05
2023-04-15T07:50:55.549Z,19.27
2023-04-15T07:53:01.004Z,19.55
2023-04-15T07:55:09.962Z,23.10
2023-04-15T07:57:14.805Z,21.77
2023-04-15T07:59:24.627Z,18.92
2023-04-15T08:01:29.659Z,19.02
2023-04-15T08:03:35.094Z,18.00
2023-04-15T08:05:41.295Z,23.40
2023-04-15T08:07:51.479Z,18.60
2023-04-15T08:09:56.465Z,21.33
2023-04-15T08:12:01.530Z,21.55
2023-04-15T08:14:07.142Z,22.42
2023-04-15T08:16:24.979Z,22.13
2023-04-15T08:18:29.993Z,19.95
2023-04-15T08:20:34.998Z,24.27
2023-04-15T08:22:40.042Z,19.15
2023-04-15T08:24:48.237Z,17.77
2023-04-15T08:26:53.265Z,20.73
2023-04-15T08:28:58.465Z,18.90
2023-04-15T08:31:03.904Z,21.38
2023-04-15T08:33:09.539Z,17.95
2023-04-15T08:35:14.754Z,18.27
2023-04-15T08:37:19.652Z,21.15
2023-04-15T08:39:24.647Z,21.45
2023-04-15T08:41:35.045Z,19.35
2023-04-15T08:43:45.488Z,21.13
2023-04-15T08:45:52.165Z,22.00
2023-04-15T08:47:59.913Z,19.10
2023-04-15T08:50:06.727Z,21.60
2023-04-15T08:52:13.517Z,17.30
2023-04-15T08:54:21.070Z,23.13
2023-04-15T08:56:31.357Z,18.95
2023-04-15T08:58:40.634Z,24.42
2023-04-15T09:00:46.080Z,20.50
2023-04-15T09:02:54.223Z,20.00
2023-04-15T09:04:59.408Z,24.20
2023-04-15T09:07:04.977Z,21.27
2023-04-15T09:09:10.814Z,19.75
2023-04-15T09:11:15.837Z,19.27
2023-04-15T09:13:26.774Z,19.08
2023-04-15T09:15:36.662Z,18.45
2023-04-15T09:17:46.569Z,19.30
2023-04-15T09:20:11.692Z,19.60
2023-04-15T09:22:21.824Z,20.80
2023-04-15T09:24:27.284Z,20.92
2023-04-15T09:26:41.031Z,16.40
2023-04-15T09:28:46.026Z,19.38
2023-04-15T09:30:56.812Z,20.95
2023-04-15T09:33:11.285Z,16.40
2023-04-15T09:35:19.240Z,17.77
2023-04-15T09:37:38.502Z,19.83
2023-04-15T09:39:52.180Z,16.02
2023-04-15T09:42:10.199Z,15.82
2023-04-15T09:44:25.855Z,15.63
2023-04-15T09:46:49.855Z,11.88
2023-04-15T09:49:12.137Z,14.18
2023-04-15T09:51:18.948Z,7.18
2023-04-15T09:53:26.245Z,9.63
2023-04-15T09:55:31.188Z,11.43
2023-04-15T09:57:39.402Z,14.75
2023-04-15T09:59:45.126Z,17.67
2023-04-15T10:01:52.660Z,13.23
2023-04-15T10:04:00.551Z,11.93
2023-04-15T10:06:06.655Z,10.45
2023-04-15T10:08:12.257Z,10.18
2023-04-15T10:10:19.804Z,8.18
2023-04-15T10:12:26.388Z,12.48
2023-04-15T10:14:34.982Z,10.40
2023-04-15T10:16:46.290Z,9.63
2023-04-15T10:18:57.881Z,10.70
2023-04-15T10:21:04.314Z,10.18
2023-04-15T10:23:12.827Z,10.93
2023-04-15T10:25:19.597Z,11.30
2023-04-15T10:27:25.144Z,9.75
2023-04-15T10:29:30.219Z,11.70
2023-04-15T10:31:38.596Z,11.18
2023-04-15T10:33:45.661Z,11.90
2023-04-15T10:35:54.813Z,14.13
2023-04-15T10:38:00.155Z,10.32
2023-04-15T10:40:25.085Z,13.02
2023-04-15T10:42:37.961Z,11.82
2023-04-15T10:44:46.272Z,17.55
2023-04-15T10:46:52.135Z,8.25
2023-04-15T10:48:57.924Z,10.23
2023-04-15T10:51:07.092Z,9.73
2023-04-15T10:53:14.305Z,11.25
2023-04-15T10:55:24.650Z,11.48
2023-04-15T10:57:38.377Z,12.00
2023-04-15T11:00:04.893Z,9.32
2023-04-15T11:02:10.904Z,13.18
2023-04-15T11:04:21.498Z,10.57
2023-04-15T11:06:49.509Z,9.98
2023-04-15T11:09:02.835Z,12.95
2023-04-15T11:13:22.064Z,12.85
2023-04-15T11:15:33.209Z,10.75
2023-04-15T11:17:38.619Z,12.25
2023-04-15T11:19:43.959Z,13.60
2023-04-15T11:21:57.794Z,10.43
2023-04-15T11:24:07.001Z,9.45
2023-04-15T11:26:14.079Z,11.45
2023-04-15T11:28:20.367Z,11.02
2023-04-15T11:30:29.702Z,11.05
2023-04-15T11:32:34.622Z,12.50
2023-04-15T11:34:41.185Z,11.43
2023-04-15T11:36:49.342Z,12.57
2023-04-15T11:38:58.135Z,11.35
2023-04-15T11:41:03.060Z,10.25
2023-04-15T11:43:09.524Z,11.02
2023-04-15T11:45:16.186Z,11.60
2023-04-15T11:47:27.441Z,8.30
2023-04-15T11:49:35.361Z,9.10
2023-04-15T11:51:42.882Z,8.38
2023-04-15T11:53:49.514Z,10.85
2023-04-15T11:55:57.568Z,9.20
2023-04-15T11:58:15.095Z,10.88
2023-04-15T12:00:25.363Z,13.43
2023-04-15T12:02:34.916Z,11.35
2023-04-15T12:04:40.007Z,8.57
2023-04-15T12:06:45.201Z,11.07
2023-04-15T12:09:08.485Z,10.55
2023-04-15T12:13:24.403Z,15.45
2023-04-15T12:15:29.428Z,11.20
2023-04-15T12:17:50.898Z,9.15
2023-04-15T12:19:59.827Z,10.13
2023-04-15T12:22:06.786Z,8.35
2023-04-15T12:24:12.989Z,11.20
2023-04-15T12:26:24.005Z,10.57
2023-04-15T12:28:33.732Z,9.75
2023-04-15T12:30:39.273Z,14.15
2023-04-15T12:32:44.300Z,10.73
2023-04-15T12:34:56.262Z,9.27
2023-04-15T12:37:04.474Z,8.98
2023-04-15T12:39:09.634Z,8.02
2023-04-15T12:41:14.566Z,9.88
2023-04-15T12:43:26.574Z,10.15
2023-04-15T12:45:31.967Z,8.77
2023-04-15T12:47:36.853Z,8.23
2023-04-15T12:49:45.342Z,7.85
2023-04-15T12:51:54.034Z,10.75
2023-04-15T12:53:59.119Z,9.77
2023-04-15T12:56:04.014Z,6.40
2023-04-15T12:58:09.053Z,9.57
2023-04-15T13:00:20.792Z,13.10
2023-04-15T13:02:28.867Z,14.88
2023-04-15T13:04:34.138Z,11.07
2023-04-15T13:06:39.425Z,11.13
2023-04-15T13:08:57.393Z,8.88
2023-04-15T13:11:03.102Z,13.52
2023-04-15T13:13:10.193Z,9.63
2023-04-15T13:15:21.046Z,11.05
2023-04-15T13:17:26.026Z,11.55
2023-04-15T13:19:31.122Z,8.57
2023-04-15T13:21:36.972Z,7.38
2023-04-15T13:23:43.227Z,8.95
2023-04-15T13:25:49.293Z,9.38
2023-04-15T13:27:54.226Z,7.25
2023-04-15T13:29:59.062Z,11.32
2023-04-15T13:32:06.653Z,7.55
2023-04-15T13:34:11.894Z,8.45
2023-04-15T13:36:19.796Z,12.23
2023-04-15T13:38:24.740Z,13.23
2023-04-15T13:40:30.048Z,9.75
2023-04-15T13:42:35.107Z,9.30
2023-04-15T13:44:41.148Z,14.77
2023-04-15T13:46:46.149Z,10.48
2023-04-15T13:48:53.675Z,8.95
2023-04-15T13:50:58.823Z,9.25
2023-04-15T13:53:08.941Z,9.15
2023-04-15T13:55:20.315Z,10.18
2023-04-15T13:57:26.151Z,12.43
2023-04-15T13:59:31.181Z,9.20
2023-04-15T14:01:36.738Z,7.70
2023-04-15T14:03:41.935Z,9.43
2023-04-15T14:05:53.693Z,11.98
2023-04-15T14:07:58.795Z,8.40
2023-04-15T14:10:04.403Z,9.60
2023-04-15T14:12:10.500Z,10.13
2023-04-15T14:14:16.337Z,9.98
2023-04-15T14:16:25.730Z,7.93
2023-04-15T14:18:30.699Z,9.52
2023-04-15T14:20:35.842Z,13.57
2023-04-15T14:22:43.410Z,8.73
2023-04-15T14:24:53.482Z,11.52
2023-04-15T14:26:58.556Z,15.45
2023-04-15T14:29:03.745Z,8.65
2023-04-15T14:31:09.043Z,8.90
2023-04-15T14:33:14.233Z,10.15
2023-04-15T14:35:21.627Z,9.77
2023-04-15T14:37:26.644Z,10.43
2023-04-15T14:39:33.996Z,9.57
2023-04-15T14:41:38.901Z,10.60
2023-04-15T14:43:43.655Z,6.68
2023-04-15T14:45:52.159Z,10.75
2023-04-15T14:47:57.019Z,10.05
2023-04-15T14:50:02.701Z,11.10
2023-04-15T14:52:07.680Z,13.35
2023-04-15T14:54:12.901Z,12.23
2023-04-15T14:56:22.404Z,9.63
2023-04-15T14:58:28.135Z,11.75
2023-04-15T15:00:33.429Z,11.57
2023-04-15T15:02:40.353Z,12.98
2023-04-15T15:04:45.507Z,11.65
2023-04-15T15:06:53.375Z,12.45
2023-04-15T15:08:58.271Z,11.93
2023-04-15T15:11:03.309Z,8.98
2023-04-15T15:13:12.156Z,10.75
2023-04-15T15:19:35.043Z,9.00
2023-04-15T15:21:40.592Z,10.75
2023-04-15T15:23:45.526Z,13.63
2023-04-15T15:25:50.519Z,9.80
2023-04-15T15:27:55.852Z,9.77
2023-04-15T15:30:03.544Z,10.93
2023-04-15T15:32:08.926Z,10.43
2023-04-15T15:34:13.823Z,12.50
2023-04-15T15:36:19.473Z,10.80
2023-04-15T15:38:26.499Z,7.97
2023-04-15T15:40:31.493Z,9.48
2023-04-15T15:42:41.762Z,8.35
2023-04-15T15:44:54.517Z,11.30
2023-04-15T15:47:13.536Z,9.05
2023-04-15T15:49:35.426Z,8.45
2023-04-15T15:51:51.196Z,8.73
2023-04-15T15:54:08.414Z,9.80
2023-04-15T15:56:14.504Z,14.07
2023-04-15T15:58:56.797Z,11.60
2023-04-15T16:01:41.712Z,11.90
2023-04-15T16:05:58.889Z,12.63
2023-04-15T16:08:26.500Z,9.77
2023-04-15T16:11:00.663Z,11.68
2023-04-15T16:13:11.326Z,10.65
2023-04-15T16:15:20.842Z,8.68
2023-04-15T16:17:57.494Z,8.50
2023-04-15T16:20:15.523Z,9.55
2023-04-15T16:22:25.979Z,8.93
2023-04-15T16:24:49.011Z,13.48
2023-04-15T16:27:01.822Z,9.07
2023-04-15T16:29:07.456Z,10.60
2023-04-15T16:31:14.191Z,12.05
2023-04-15T16:33:21.096Z,10.95
2023-04-15T16:35:26.416Z,7.97
2023-04-15T16:37:36.575Z,9.02
2023-04-15T16:39:43.532Z,13.02
2023-04-15T16:41:48.518Z,9.68
2023-04-15T16:43:53.486Z,7.95
2023-04-15T16:46:02.221Z,9.40
2023-04-15T16:48:18.093Z,8.15
2023-04-15T16:50:23.442Z,7.38
2023-04-15T16:52:39.428Z,9.55
2023-04-15T16:55:04.208Z,12.82
2023-04-15T16:57:20.972Z,9.05
2023-04-15T16:59:39.210Z,9.43
2023-04-15T17:01:51.220Z,8.55
2023-04-15T17:03:57.296Z,9.45
2023-04-15T17:06:03.888Z,9.43
2023-04-15T17:08:12.644Z,11.55
2023-04-15T17:10:20.815Z,16.27
2023-04-15T17:12:30.556Z,13.23
2023-04-15T17:14:41.880Z,13.25
2023-04-15T17:16:49.997Z,9.82
2023-04-15T17:19:07.683Z,11.35
2023-04-15T17:21:22.643Z,12.57
2023-04-15T17:23:31.246Z,5.05
2023-04-15T17:25:42.236Z,9.93
2023-04-15T17:27:49.914Z,7.72
2023-04-15T17:29:57.647Z,8.63
2023-04-15T17:32:34.913Z,7.15
2023-04-15T17:34:49.696Z,10.13
2023-04-15T17:37:00.017Z,7.65
2023-04-15T17:39:27.203Z,8.63
2023-04-15T17:41:40.047Z,5.65
2023-04-15T17:43:50.178Z,7.97
2023-04-15T17:46:01.252Z,6.82
2023-04-15T17:48:28.355Z,5.97
2023-04-15T17:50:40.590Z,9.98
2023-04-15T17:53:01.301Z,8.70
2023-04-15T17:55:22.301Z,7.15
2023-04-15T17:57:38.479Z,7.68
2023-04-15T17:59:50.557Z,5.50
2023-04-15T18:02:04.211Z,7.80
2023-04-15T18:04:09.791Z,11.05
2023-04-15T18:06:17.873Z,8.77
2023-04-15T18:08:24.245Z,9.10
2023-04-15T18:10:32.081Z,8.95
2023-04-15T18:12:37.050Z,12.10
2023-04-15T18:14:41.936Z,7.10
2023-04-15T18:16:48.572Z,6.80
2023-04-15T18:18:53.424Z,9.50
2023-04-15T18:20:58.286Z,5.88
2023-04-15T18:23:03.229Z,9.80
2023-04-15T18:25:09.855Z,5.25
2023-04-15T18:27:19.817Z,9.23
2023-04-15T18:29:25.856Z,8.15
2023-04-15T18:31:32.125Z,10.50
2023-04-15T18:33:40.176Z,9.20
2023-04-15T18:35:46.439Z,8.52
2023-04-15T18:37:56.832Z,10.18
2023-04-15T18:40:02.358Z,12.10
2023-04-15T18:42:07.416Z,5.05
2023-04-15T18:44:14.975Z,7.95
2023-04-15T18:46:20.093Z,5.40
2023-04-15T18:48:28.249Z,6.30
2023-04-15T18:50:33.158Z,3.58
2023-04-15T18:52:38.083Z,8.75
2023-04-15T18:54:43.236Z,6.13
2023-04-15T18:56:50.327Z,8.55
2023-04-15T18:59:19.365Z,11.07
2023-04-15T19:01:23.301Z,6.55
2023-04-15T19:03:31.995Z,5.20
2023-04-15T19:05:37.049Z,6.95
2023-04-15T19:07:42.007Z,5.82
2023-04-15T19:09:47.593Z,5.13
2023-04-15T19:11:52.975Z,5.95
2023-04-15T19:13:57.900Z,9.68
2023-04-15T19:16:06.148Z,2.88
2023-04-15T19:18:13.820Z,7.65
2023-04-15T19:20:21.781Z,7.35
2023-04-15T19:22:26.793Z,5.15
2023-04-15T19:24:33.171Z,5.88
2023-04-15T19:26:39.750Z,5.22
2023-04-15T19:28:44.862Z,7.93
2023-04-15T19:30:49.936Z,8.38
2023-04-15T19:32:55.092Z,6.35
2023-04-15T19:35:02.787Z,8.73
2023-04-15T19:37:07.903Z,3.50
2023-04-15T19:39:13.851Z,9.63
2023-04-15T19:41:20.296Z,7.10
2023-04-15T19:43:28.370Z,10.93
2023-04-15T19:45:36.571Z,10.95
2023-04-15T19:47:41.864Z,10.10
2023-04-15T19:49:47.489Z,8.43
2023-04-15T19:51:59.994Z,5.85
2023-04-15T19:54:05.389Z,7.00
2023-04-15T19:56:11.098Z,6.30
2023-04-15T19:58:19.904Z,8.52
2023-04-15T20:00:25.758Z,10.02
2023-04-15T20:02:32.635Z,5.82
2023-04-15T20:04:38.167Z,11.35
2023-04-15T20:06:43.191Z,9.43
2023-04-15T20:08:53.711Z,10.02
2023-04-15T20:11:01.539Z,9.65
2023-04-15T20:13:06.457Z,8.95
2023-04-15T20:15:12.432Z,6.20
2023-04-15T20:17:20.591Z,3.83
2023-04-15T20:19:27.454Z,7.15
2023-04-15T20:21:32.526Z,6.70
2023-04-15T20:23:38.511Z,7.35
2023-04-15T20:25:48.014Z,11.50
2023-04-15T20:27:53.238Z,14.77
2023-04-15T20:29:58.218Z,10.20
2023-04-15T20:32:03.147Z,7.80
2023-04-15T20:34:10.624Z,9.68
2023-04-15T20:36:17.355Z,13.10
2023-04-15T20:38:24.298Z,12.45
2023-04-15T20:40:29.295Z,14.90
2023-04-15T20:42:38.244Z,9.15
2023-04-15T20:44:43.388Z,9.93
2023-04-15T20:46:49.709Z,8.85
2023-04-15T20:48:54.582Z,9.70
2023-04-15T20:51:00.656Z,11.73
2023-04-15T20:53:06.026Z,9.20
2023-04-15T20:55:14.174Z,10.55
2023-04-15T20:57:24.753Z,7.10
2023-04-15T20:59:33.110Z,9.93
2023-04-15T21:01:38.081Z,7.25
2023-04-15T21:03:43.078Z,7.28
2023-04-15T21:05:50.694Z,10.25
2023-04-15T21:07:56.359Z,8.15
2023-04-15T21:10:02.790Z,8.75
2023-04-15T21:12:10.305Z,9.75
2023-04-15T21:14:15.557Z,7.32
2023-04-15T21:16:23.125Z,5.00
2023-04-15T21:18:31.495Z,8.15
2023-04-15T21:20:36.672Z,8.63
2023-04-15T21:22:41.616Z,6.32
2023-04-15T21:24:50.704Z,7.55
2023-04-15T21:26:57.944Z,6.68
2023-04-15T21:29:03.297Z,8.43
2023-04-15T21:31:09.034Z,3.97
2023-04-15T21:33:52.259Z,5.13
2023-04-15T21:35:57.442Z,11.65
2023-04-15T21:38:02.290Z,5.15
2023-04-15T21:40:08.385Z,6.93
2023-04-15T21:42:13.312Z,10.32
2023-04-15T21:44:20.378Z,3.78
2023-04-15T21:46:35.578Z,5.47
2023-04-15T21:48:47.561Z,5.68
2023-04-15T21:50:53.184Z,9.48
2023-04-15T21:53:00.141Z,6.50
2023-04-15T21:55:05.391Z,7.72
2023-04-15T21:57:10.787Z,9.88
2023-04-15T21:59:20.446Z,6.20
2023-04-15T22:01:32.177Z,5.95
2023-04-15T22:03:38.257Z,5.38
2023-04-15T22:05:50.051Z,5.88
2023-04-15T22:07:58.394Z,8.50
2023-04-15T22:10:05.353Z,4.55
2023-04-15T22:12:10.663Z,6.90
2023-04-15T22:14:19.312Z,3.72
2023-04-15T22:16:26.745Z,5.45
2023-04-15T22:18:34.395Z,9.10
2023-04-15T22:20:47.470Z,4.43
2023-04-15T22:25:03.500Z,6.75
2023-04-15T22:27:09.067Z,5.40
2023-04-15T22:29:14.708Z,6.88
2023-04-15T22:31:22.323Z,7.82
2023-04-15T22:33:28.092Z,5.57
2023-04-15T22:35:34.574Z,7.57
2023-04-15T22:37:42.467Z,13.05
2023-04-15T22:39:54.576Z,11.25
2023-04-15T22:42:01.490Z,10.88
2023-04-15T22:44:06.620Z,7.88
2023-04-15T22:46:11.985Z,5.05
2023-04-15T22:48:17.672Z,9.82
2023-04-15T22:50:23.159Z,13.43
2023-04-15T22:52:31.019Z,7.35
2023-04-15T22:54:42.065Z,6.70
2023-04-15T22:56:47.214Z,9.90
2023-04-15T22:58:53.077Z,8.15
2023-04-15T23:00:59.322Z,7.85
2023-04-15T23:03:05.449Z,7.03
2023-04-15T23:05:13.601Z,7.07
2023-04-15T23:07:21.304Z,7.20
2023-04-15T23:09:26.539Z,9.27
2023-04-15T23:11:34.234Z,5.43
2023-04-15T23:13:39.555Z,13.88
2023-04-15T23:15:44.697Z,11.27
2023-04-15T23:17:49.760Z,16.67
2023-04-15T23:19:54.858Z,8.90
2023-04-15T23:22:01.483Z,9.68
2023-04-15T23:24:07.344Z,15.18
2023-04-15T23:26:12.653Z,9.75
2023-04-15T23:28:27.207Z,13.93
2023-04-15T23:30:38.971Z,9.90
2023-04-15T23:32:45.754Z,10.05
2023-04-15T23:34:57.517Z,8.88
2023-04-15T23:37:04.340Z,9.75
2023-04-15T23:39:11.646Z,12.90
2023-04-15T23:41:28.087Z,10.02
2023-04-15T23:43:36.927Z,12.82
2023-04-15T23:45:44.207Z,17.30
2023-04-15T23:47:58.285Z,14.10
2023-04-15T23:50:03.785Z,22.13
2023-04-15T23:52:09.266Z,20.40
2023-04-15T23:54:14.253Z,12.88
2023-04-15T23:56:22.769Z,16.23
2023-04-15T23:58:28.974Z,23.42
